createdAt,value
2017-01-23T00:00:07.930Z,12.98
2017-01-23T00:00:48.442Z,12.88
2017-01-23T00:01:28.938Z,12.7
2017-01-23T00:02:09.417Z,12.79
2017-01-23T00:02:49.912Z,12.5
2017-01-23T00:03:30.418Z,12.7
2017-01-23T00:04:10.926Z,12.79
2017-01-23T00:04:51.415Z,12.79
2017-01-23T00:05:31.929Z,12.79
2017-01-23T00:06:12.416Z,12.79
2017-01-23T00:06:52.924Z,12.6
2017-01-23T00:07:33.412Z,12.78
2017-01-23T00:08:13.925Z,12.69
2017-01-23T00:08:54.414Z,12.5
2017-01-23T00:09:34.910Z,12.5
2017-01-23T00:10:15.450Z,12.5
2017-01-23T00:10:55.937Z,12.5
2017-01-23T00:11:36.422Z,12.79
2017-01-23T00:12:16.916Z,12.78
2017-01-23T00:12:57.408Z,12.88
2017-01-23T00:13:37.914Z,12.5
2017-01-23T00:14:18.407Z,12.78
2017-01-23T00:14:58.903Z,12.6
2017-01-23T00:15:39.396Z,12.5
2017-01-23T00:16:19.884Z,12.6
2017-01-23T00:17:00.936Z,12.79
2017-01-23T00:17:40.878Z,12.88
2017-01-23T00:18:21.376Z,12.79
2017-01-23T00:19:01.872Z,12.69
2017-01-23T00:19:42.374Z,12.79
2017-01-23T00:20:22.863Z,12.6
2017-01-23T00:21:03.357Z,12.5
2017-01-23T00:21:43.875Z,12.6
2017-01-23T00:22:24.364Z,12.79
2017-01-23T00:23:04.848Z,12.7
2017-01-23T00:23:45.352Z,12.6
2017-01-23T00:24:25.843Z,12.4
2017-01-23T00:25:06.340Z,12.6
2017-01-23T00:25:46.831Z,12.78
2017-01-23T00:26:27.319Z,12.4
2017-01-23T00:27:07.819Z,12.6
2017-01-23T00:27:48.298Z,12.6
2017-01-23T00:28:28.802Z,12.6
2017-01-23T00:29:09.289Z,12.5
2017-01-23T00:29:49.783Z,12.59
2017-01-23T00:30:30.265Z,12.5
2017-01-23T00:31:10.763Z,12.5
2017-01-23T00:31:51.335Z,12.59
2017-01-23T00:32:31.828Z,12.7
2017-01-23T00:33:12.315Z,12.4
2017-01-23T00:33:52.810Z,12.5
2017-01-23T00:34:33.299Z,12.69
2017-01-23T00:35:13.796Z,12.5
2017-01-23T00:35:54.292Z,12.6
2017-01-23T00:36:34.790Z,12.7
2017-01-23T00:37:15.282Z,12.6
2017-01-23T00:37:55.776Z,12.6
2017-01-23T00:38:36.275Z,12.69
2017-01-23T00:39:16.761Z,12.6
2017-01-23T00:39:57.246Z,12.7
2017-01-23T00:40:37.729Z,12.6
2017-01-23T00:41:18.238Z,12.5
2017-01-23T00:41:58.729Z,12.21
2017-01-23T00:42:39.226Z,12.4
2017-01-23T00:43:19.725Z,12.31
2017-01-23T00:44:00.224Z,12.6
2017-01-23T00:44:40.711Z,12.6
2017-01-23T00:45:21.206Z,12.6
2017-01-23T00:46:01.695Z,12.6
2017-01-23T00:46:42.177Z,12.6
2017-01-23T00:47:22.680Z,12.7
2017-01-23T00:48:03.171Z,12.6
2017-01-23T00:48:43.665Z,12.5
2017-01-23T00:49:24.201Z,12.6
2017-01-23T00:50:04.685Z,12.59
2017-01-23T00:50:45.166Z,12.6
2017-01-23T00:51:25.987Z,12.6
2017-01-23T00:52:06.475Z,12.7
2017-01-23T00:52:46.987Z,12.6
2017-01-23T00:53:27.471Z,12.6
2017-01-23T00:54:07.964Z,12.6
2017-01-23T00:54:48.448Z,12.4
2017-01-23T00:55:28.936Z,12.7
2017-01-23T00:56:09.426Z,12.7
2017-01-23T00:56:49.915Z,12.5
2017-01-23T00:57:30.430Z,12.6
2017-01-23T00:58:10.923Z,12.49
2017-01-23T00:58:51.426Z,12.59
2017-01-23T00:59:31.918Z,12.5
2017-01-23T01:00:12.410Z,12.4
2017-01-23T01:00:52.908Z,12.6
2017-01-23T01:01:33.407Z,12.6
2017-01-23T01:02:13.930Z,12.6
2017-01-23T01:02:54.387Z,12.5
2017-01-23T01:03:34.871Z,12.5
2017-01-23T01:04:15.358Z,12.6
2017-01-23T01:04:55.851Z,12.5
2017-01-23T01:05:36.349Z,12.5
2017-01-23T01:06:16.835Z,12.6
2017-01-23T01:06:57.340Z,12.59
2017-01-23T01:07:37.832Z,12.49
2017-01-23T01:08:18.331Z,12.7
2017-01-23T01:08:58.800Z,12.5
2017-01-23T01:09:39.293Z,12.6
2017-01-23T01:10:19.789Z,12.59
2017-01-23T01:11:00.262Z,12.59
2017-01-23T01:11:40.772Z,12.59
2017-01-23T01:12:21.267Z,12.6
2017-01-23T01:13:01.765Z,12.4
2017-01-23T01:13:42.245Z,12.6
2017-01-23T01:14:22.751Z,12.6
2017-01-23T01:15:03.243Z,12.6
2017-01-23T01:15:43.750Z,12.5
2017-01-23T01:16:24.232Z,12.21
2017-01-23T01:17:04.722Z,12.6
2017-01-23T01:17:45.213Z,12.5
2017-01-23T01:18:25.697Z,12.59
2017-01-23T01:19:06.197Z,12.59
2017-01-23T01:19:46.687Z,12.6
2017-01-23T01:20:27.179Z,12.5
2017-01-23T01:21:07.662Z,12.59
2017-01-23T01:21:48.148Z,12.6
2017-01-23T01:22:28.647Z,12.7
2017-01-23T01:23:09.132Z,12.4
2017-01-23T01:23:49.624Z,12.59
2017-01-23T01:24:30.109Z,12.49
2017-01-23T01:25:10.591Z,12.7
2017-01-23T01:25:51.088Z,12.69
2017-01-23T01:26:31.574Z,12.6
2017-01-23T01:27:12.086Z,12.6
2017-01-23T01:27:52.575Z,12.59
2017-01-23T01:28:33.056Z,12.7
2017-01-23T01:29:13.539Z,12.7
2017-01-23T01:29:54.032Z,12.6
2017-01-23T01:30:34.531Z,12.7
2017-01-23T01:31:15.022Z,12.6
2017-01-23T01:31:55.520Z,12.6
2017-01-23T01:32:36.019Z,12.7
2017-01-23T01:33:16.516Z,12.6
2017-01-23T01:33:56.998Z,12.4
2017-01-23T01:34:37.494Z,12.6
2017-01-23T01:35:17.987Z,12.7
2017-01-23T01:35:58.476Z,12.6
2017-01-23T01:36:38.973Z,12.59
2017-01-23T01:37:19.462Z,12.21
2017-01-23T01:37:59.976Z,12.31
2017-01-23T01:38:40.464Z,12.31
2017-01-23T01:39:20.959Z,12.4
2017-01-23T01:40:01.452Z,12.31
2017-01-23T01:40:41.920Z,12.31
2017-01-23T01:41:22.419Z,12.21
2017-01-23T01:42:02.910Z,12.7
2017-01-23T01:42:43.621Z,12.6
2017-01-23T01:43:24.113Z,12.6
2017-01-23T01:44:04.604Z,12.6
2017-01-23T01:44:45.129Z,12.21
2017-01-23T01:45:25.654Z,12.6
2017-01-23T01:46:06.141Z,12.59
2017-01-23T01:46:46.632Z,12.6
2017-01-23T01:47:27.112Z,12.6
2017-01-23T01:48:07.616Z,12.7
2017-01-23T01:48:48.106Z,12.21
2017-01-23T01:49:28.620Z,12.4
2017-01-23T01:50:09.106Z,12.21
2017-01-23T01:50:49.617Z,12.7
2017-01-23T01:51:30.108Z,12.31
2017-01-23T01:52:10.606Z,12.31
2017-01-23T01:52:51.116Z,12.21
2017-01-23T01:53:31.616Z,12.21
2017-01-23T01:54:12.107Z,12.59
2017-01-23T01:54:52.602Z,12.21
2017-01-23T01:55:33.099Z,12.59
2017-01-23T01:56:13.577Z,12.6
2017-01-23T01:56:54.079Z,12.6
2017-01-23T01:57:34.570Z,12.7
2017-01-23T01:58:15.060Z,12.6
2017-01-23T01:58:55.547Z,12.59
2017-01-23T01:59:36.043Z,12.7
2017-01-23T02:00:16.539Z,12.6
2017-01-23T02:00:57.003Z,12.6
2017-01-23T02:01:37.508Z,12.6
2017-01-23T02:03:50.335Z,12.4
2017-01-23T02:04:30.783Z,12.21
2017-01-23T02:05:11.272Z,12.59
2017-01-23T02:05:51.765Z,12.59
2017-01-23T02:06:32.250Z,12.5
2017-01-23T02:07:12.766Z,12.6
2017-01-23T02:07:53.257Z,12.4
2017-01-23T02:08:33.766Z,12.4
2017-01-23T02:09:14.248Z,12.21
2017-01-23T02:09:54.743Z,12.21
2017-01-23T02:10:35.227Z,12.4
2017-01-23T02:11:15.715Z,12.31
2017-01-23T02:11:56.233Z,12.21
2017-01-23T02:12:36.693Z,12.6
2017-01-23T02:13:17.209Z,12.7
2017-01-23T02:13:57.692Z,12.5
2017-01-23T02:14:38.191Z,12.6
2017-01-23T02:15:18.689Z,12.59
2017-01-23T02:15:59.192Z,12.6
2017-01-23T02:16:39.685Z,12.49
2017-01-23T02:17:20.207Z,12.5
2017-01-23T02:18:00.691Z,12.4
2017-01-23T02:18:41.188Z,12.31
2017-01-23T02:19:21.669Z,12.69
2017-01-23T02:20:02.143Z,12.6
2017-01-23T02:20:42.647Z,12.6
2017-01-23T02:21:23.138Z,12.6
2017-01-23T02:22:03.650Z,12.6
2017-01-23T02:22:44.137Z,12.59
2017-01-23T02:23:24.917Z,12.49
2017-01-23T02:24:05.405Z,12.59
2017-01-23T02:24:45.890Z,12.6
2017-01-23T02:25:26.384Z,12.4
2017-01-23T02:26:06.868Z,12.5
2017-01-23T02:26:47.357Z,12.59
2017-01-23T02:27:27.847Z,12.21
2017-01-23T02:28:08.336Z,12.59
2017-01-23T02:28:48.833Z,12.59
2017-01-23T02:29:29.328Z,12.59
2017-01-23T02:30:09.890Z,12.59
2017-01-23T02:30:50.320Z,12.5
2017-01-23T02:31:30.790Z,12.7
2017-01-23T02:32:11.293Z,12.6
2017-01-23T02:32:51.779Z,12.31
2017-01-23T02:33:32.278Z,12.21
2017-01-23T02:34:12.756Z,12.21
2017-01-23T02:34:53.252Z,12.7
2017-01-23T02:35:33.755Z,12.4
2017-01-23T02:36:14.234Z,12.21
2017-01-23T02:36:54.747Z,12.21
2017-01-23T02:37:35.241Z,12.3
2017-01-23T02:38:15.731Z,12.21
2017-01-23T02:38:56.222Z,12.7
2017-01-23T02:39:36.713Z,12.31
2017-01-23T02:40:17.211Z,12.21
2017-01-23T02:40:57.699Z,12.4
2017-01-23T02:41:38.193Z,12.4
2017-01-23T02:42:18.674Z,12.21
2017-01-23T02:42:59.185Z,12.21
2017-01-23T02:43:39.676Z,12.6
2017-01-23T02:44:20.171Z,12.6
2017-01-23T02:45:00.665Z,12.5
2017-01-23T02:45:41.158Z,12.21
2017-01-23T02:46:21.641Z,12.5
2017-01-23T02:47:02.120Z,12.3
2017-01-23T02:47:42.619Z,12.31
2017-01-23T02:48:23.104Z,12.7
2017-01-23T02:49:03.620Z,12.6
2017-01-23T02:49:44.111Z,12.59
2017-01-23T02:50:24.608Z,12.21
2017-01-23T02:51:05.110Z,12.31
2017-01-23T02:51:45.615Z,12.21
2017-01-23T02:52:26.211Z,12.6
2017-01-23T02:53:06.721Z,12.59
2017-01-23T02:53:47.208Z,12.7
2017-01-23T02:54:27.708Z,12.7
2017-01-23T02:55:08.205Z,12.6
2017-01-23T02:55:48.705Z,12.6
2017-01-23T02:56:29.195Z,12.59
2017-01-23T02:57:09.685Z,12.5
2017-01-23T02:57:50.171Z,12.69
2017-01-23T02:58:31.184Z,12.5
2017-01-23T02:59:11.557Z,12.31
2017-01-23T02:59:52.063Z,12.59
2017-01-23T03:00:32.557Z,12.21
2017-01-23T03:01:13.060Z,12.6
2017-01-23T03:01:53.551Z,12.21
2017-01-23T03:02:34.038Z,12.21
2017-01-23T03:03:14.536Z,12.7
2017-01-23T03:03:55.027Z,12.59
2017-01-23T03:04:35.509Z,12.6
2017-01-23T03:05:16.004Z,12.6
2017-01-23T03:05:56.504Z,12.59
2017-01-23T03:06:37.000Z,12.59
2017-01-23T03:07:17.479Z,12.6
2017-01-23T03:07:57.963Z,12.49
2017-01-23T03:08:38.460Z,12.59
2017-01-23T03:09:18.950Z,12.6
2017-01-23T03:09:59.462Z,12.7
2017-01-23T03:10:39.948Z,12.6
2017-01-23T03:11:20.448Z,12.59
2017-01-23T03:12:00.943Z,12.49
2017-01-23T03:12:41.441Z,12.5
2017-01-23T03:13:21.944Z,12.21
2017-01-23T03:14:02.427Z,12.7
2017-01-23T03:14:42.915Z,12.6
2017-01-23T03:15:23.396Z,12.4
2017-01-23T03:16:03.893Z,12.6
2017-01-23T03:16:44.390Z,12.31
2017-01-23T03:17:24.892Z,12.6
2017-01-23T03:18:05.388Z,12.31
2017-01-23T03:18:45.887Z,12.3
2017-01-23T03:19:26.382Z,12.5
2017-01-23T03:20:06.875Z,12.4
2017-01-23T03:20:47.370Z,12.5
2017-01-23T03:21:27.859Z,12.6
2017-01-23T03:22:08.349Z,12.4
2017-01-23T03:22:48.836Z,12.59
2017-01-23T03:23:29.335Z,12.59
2017-01-23T03:24:09.836Z,12.6
2017-01-23T03:24:50.347Z,12.59
2017-01-23T03:25:30.834Z,12.69
2017-01-23T03:26:11.331Z,12.49
2017-01-23T03:26:51.824Z,12.49
2017-01-23T03:27:32.309Z,12.6
2017-01-23T03:28:12.797Z,12.69
2017-01-23T03:28:53.283Z,12.59
2017-01-23T03:29:33.779Z,12.6
2017-01-23T03:30:14.262Z,12.49
2017-01-23T03:30:54.737Z,12.4
2017-01-23T03:31:35.236Z,12.59
2017-01-23T03:32:15.724Z,12.6
2017-01-23T03:32:56.243Z,12.21
2017-01-23T03:33:36.727Z,12.4
2017-01-23T03:34:17.230Z,12.4
2017-01-23T03:34:57.716Z,12.21
2017-01-23T03:35:38.197Z,12.59
2017-01-23T03:36:18.698Z,12.5
2017-01-23T03:36:59.190Z,12.21
2017-01-23T03:37:39.678Z,12.69
2017-01-23T03:38:20.169Z,12.21
2017-01-23T03:39:00.662Z,12.21
2017-01-23T03:39:41.146Z,12.5
2017-01-23T03:40:21.624Z,12.21
2017-01-23T03:41:02.125Z,12.4
2017-01-23T03:41:42.616Z,12.3
2017-01-23T03:42:23.109Z,12.4
2017-01-23T03:43:03.592Z,12.21
2017-01-23T03:43:44.072Z,12.6
2017-01-23T03:44:24.573Z,12.69
2017-01-23T03:45:05.062Z,12.69
2017-01-23T03:45:45.559Z,12.6
2017-01-23T03:46:26.042Z,12.3
2017-01-23T03:47:06.541Z,12.31
2017-01-23T03:47:47.036Z,12.31
2017-01-23T03:48:27.516Z,12.31
2017-01-23T03:49:08.017Z,12.59
2017-01-23T03:49:48.509Z,12.21
2017-01-23T03:50:29.000Z,12.4
2017-01-23T03:51:09.485Z,12.31
2017-01-23T03:51:49.960Z,12.31
2017-01-23T03:52:30.463Z,12.3
2017-01-23T03:53:10.954Z,12.59
2017-01-23T03:53:51.455Z,12.69
2017-01-23T03:54:32.322Z,12.69
2017-01-23T03:55:12.811Z,12.6
2017-01-23T03:55:53.330Z,12.21
2017-01-23T03:56:33.818Z,12.21
2017-01-23T03:57:14.318Z,12.7
2017-01-23T03:57:54.812Z,12.59
2017-01-23T03:58:35.324Z,12.69
2017-01-23T03:59:15.816Z,12.4
2017-01-23T03:59:56.315Z,12.21
2017-01-23T04:00:36.803Z,12.31
2017-01-23T04:01:17.335Z,12.49
2017-01-23T04:01:57.829Z,12.59
2017-01-23T04:02:38.320Z,12.59
2017-01-23T04:03:18.805Z,12.59
2017-01-23T04:03:59.298Z,12.59
2017-01-23T04:04:39.791Z,12.4
2017-01-23T04:05:20.266Z,12.69
2017-01-23T04:06:00.760Z,12.69
2017-01-23T04:06:41.249Z,12.6
2017-01-23T04:07:21.741Z,12.59
2017-01-23T04:08:02.226Z,12.49
2017-01-23T04:08:42.714Z,12.6
2017-01-23T04:09:23.208Z,12.59
2017-01-23T04:10:03.700Z,12.6
2017-01-23T04:10:44.189Z,12.21
2017-01-23T04:11:24.673Z,12.6
2017-01-23T04:12:05.158Z,12.59
2017-01-23T04:12:45.647Z,12.59
2017-01-23T04:13:26.143Z,12.5
2017-01-23T04:14:06.641Z,12.59
2017-01-23T04:14:47.632Z,12.6
2017-01-23T04:15:28.168Z,12.7
2017-01-23T04:16:08.653Z,12.5
2017-01-23T04:16:49.147Z,12.49
2017-01-23T04:17:29.649Z,12.7
2017-01-23T04:18:10.149Z,12.59
2017-01-23T04:18:50.642Z,12.3
2017-01-23T04:19:31.114Z,12.59
2017-01-23T04:20:11.608Z,12.59
2017-01-23T04:20:52.094Z,12.69
2017-01-23T04:21:32.590Z,12.5
2017-01-23T04:22:13.101Z,12.59
2017-01-23T04:22:53.589Z,12.31
2017-01-23T04:23:34.088Z,12.21
2017-01-23T04:24:14.573Z,12.4
2017-01-23T04:24:55.062Z,12.59
2017-01-23T04:25:35.542Z,12.49
2017-01-23T04:26:16.035Z,12.49
2017-01-23T04:26:56.539Z,12.69
2017-01-23T04:27:37.014Z,12.59
2017-01-23T04:28:17.515Z,12.69
2017-01-23T04:28:58.065Z,12.59
2017-01-23T04:29:38.533Z,12.49
2017-01-23T04:30:19.033Z,12.59
2017-01-23T04:30:59.513Z,12.69
2017-01-23T04:31:40.025Z,12.49
2017-01-23T04:32:20.493Z,12.7
2017-01-23T04:33:00.982Z,12.69
2017-01-23T04:33:41.495Z,12.69
2017-01-23T04:34:21.982Z,12.69
2017-01-23T04:35:02.475Z,12.59
2017-01-23T04:35:42.959Z,12.59
2017-01-23T04:36:24.046Z,12.69
2017-01-23T04:37:04.540Z,12.59
2017-01-23T04:37:45.021Z,12.49
2017-01-23T04:38:25.504Z,12.69
2017-01-23T04:39:06.000Z,12.69
2017-01-23T04:39:46.490Z,12.7
2017-01-23T04:40:26.987Z,12.21
2017-01-23T04:41:07.468Z,12.21
2017-01-23T04:41:47.956Z,12.59
2017-01-23T04:42:28.446Z,12.6
2017-01-23T04:43:08.934Z,12.59
2017-01-23T04:43:49.456Z,12.7
2017-01-23T04:44:29.956Z,12.59
2017-01-23T04:45:10.458Z,12.59
2017-01-23T04:45:50.955Z,12.59
2017-01-23T04:46:31.444Z,12.59
2017-01-23T04:47:11.932Z,12.4
2017-01-23T04:47:52.440Z,12.59
2017-01-23T04:48:32.931Z,12.69
2017-01-23T04:49:13.437Z,12.59
2017-01-23T04:49:53.928Z,12.6
2017-01-23T04:50:34.428Z,12.31
2017-01-23T04:51:14.925Z,12.59
2017-01-23T04:51:55.554Z,12.49
2017-01-23T04:52:36.033Z,12.69
2017-01-23T04:53:16.537Z,12.59
2017-01-23T04:53:57.030Z,12.49
2017-01-23T04:54:37.536Z,12.5
2017-01-23T04:55:18.017Z,12.59
2017-01-23T04:55:58.534Z,12.7
2017-01-23T04:56:39.025Z,12.6
2017-01-23T04:57:19.519Z,12.59
2017-01-23T04:58:00.020Z,12.59
2017-01-23T04:58:40.518Z,12.49
2017-01-23T04:59:21.011Z,12.69
2017-01-23T05:00:01.500Z,12.49
2017-01-23T05:00:41.993Z,12.49
2017-01-23T05:01:22.473Z,12.6
2017-01-23T05:02:02.984Z,12.59
2017-01-23T05:02:43.471Z,12.59
2017-01-23T05:03:23.978Z,12.59
2017-01-23T05:04:04.469Z,12.59
2017-01-23T05:04:44.983Z,12.7
2017-01-23T05:05:25.468Z,12.59
2017-01-23T05:06:05.961Z,12.59
2017-01-23T05:06:46.462Z,12.69
2017-01-23T05:07:26.954Z,12.69
2017-01-23T05:08:07.439Z,12.21
2017-01-23T05:08:47.924Z,12.59
2017-01-23T05:09:28.420Z,12.7
2017-01-23T05:10:08.910Z,12.59
2017-01-23T05:10:49.768Z,12.59
2017-01-23T05:11:30.278Z,12.4
2017-01-23T05:12:10.766Z,12.31
2017-01-23T05:12:51.258Z,12.5
2017-01-23T05:13:31.744Z,12.6
2017-01-23T05:14:12.244Z,12.59
2017-01-23T05:14:52.729Z,12.21
2017-01-23T05:15:33.212Z,12.3
2017-01-23T05:16:13.720Z,12.4
2017-01-23T05:16:54.209Z,12.3
2017-01-23T05:17:34.706Z,12.49
2017-01-23T05:18:15.203Z,12.59
2017-01-23T05:18:55.691Z,12.59
2017-01-23T05:19:36.174Z,12.4
2017-01-23T05:20:16.658Z,12.31
2017-01-23T05:20:57.165Z,12.21
2017-01-23T05:21:37.659Z,12.78
2017-01-23T05:22:18.156Z,12.7
2017-01-23T05:22:58.655Z,12.59
2017-01-23T05:23:39.169Z,12.6
2017-01-23T05:24:19.655Z,12.21
2017-01-23T05:25:00.149Z,12.49
2017-01-23T05:25:40.650Z,12.69
2017-01-23T05:26:21.134Z,12.69
2017-01-23T05:27:01.615Z,12.21
2017-01-23T05:27:42.100Z,12.21
2017-01-23T05:28:22.612Z,12.4
2017-01-23T05:29:03.098Z,12.69
2017-01-23T05:29:43.598Z,12.49
2017-01-23T05:30:24.096Z,12.69
2017-01-23T05:31:04.594Z,12.59
2017-01-23T05:31:45.083Z,12.59
2017-01-23T05:32:25.574Z,12.59
2017-01-23T05:33:06.068Z,12.5
2017-01-23T05:33:46.560Z,12.5
2017-01-23T05:34:27.056Z,12.4
2017-01-23T05:35:07.560Z,12.4
2017-01-23T05:35:48.036Z,12.59
2017-01-23T05:36:28.536Z,12.69
2017-01-23T05:37:09.060Z,12.69
2017-01-23T05:37:49.533Z,12.59
2017-01-23T05:38:30.037Z,12.59
2017-01-23T05:39:10.537Z,12.59
2017-01-23T05:39:51.046Z,12.59
2017-01-23T05:40:31.537Z,12.59
2017-01-23T05:41:12.034Z,12.69
2017-01-23T05:41:52.529Z,12.69
2017-01-23T05:42:33.004Z,12.59
2017-01-23T05:43:13.509Z,12.59
2017-01-23T05:43:53.988Z,12.59
2017-01-23T05:44:34.497Z,12.3
2017-01-23T05:45:14.980Z,12.4
2017-01-23T05:45:55.476Z,12.69
2017-01-23T05:46:35.982Z,12.69
2017-01-23T05:47:16.489Z,12.59
2017-01-23T05:47:56.978Z,12.4
2017-01-23T05:48:37.474Z,12.4
2017-01-23T05:49:17.971Z,12.4
2017-01-23T05:49:58.443Z,12.21
2017-01-23T05:50:38.937Z,12.6
2017-01-23T05:51:19.423Z,12.69
2017-01-23T05:51:59.921Z,12.59
2017-01-23T05:52:40.423Z,12.69
2017-01-23T05:53:20.939Z,12.59
2017-01-23T05:54:01.422Z,12.59
2017-01-23T05:54:41.935Z,12.49
2017-01-23T05:55:22.423Z,12.69
2017-01-23T05:56:02.916Z,12.69
2017-01-23T05:56:43.412Z,12.69
2017-01-23T05:57:23.900Z,12.59
2017-01-23T05:58:04.390Z,12.69
2017-01-23T05:58:44.873Z,12.4
2017-01-23T05:59:25.378Z,12.49
2017-01-23T06:00:05.864Z,12.49
2017-01-23T06:00:46.383Z,12.21
2017-01-23T06:01:26.869Z,12.21
2017-01-23T06:02:07.737Z,12.21
2017-01-23T06:02:48.248Z,12.59
2017-01-23T06:03:28.734Z,12.59
2017-01-23T06:04:09.230Z,12.6
2017-01-23T06:04:49.719Z,12.59
2017-01-23T06:05:30.212Z,12.59
2017-01-23T06:06:10.693Z,12.78
2017-01-23T06:06:51.167Z,12.59
2017-01-23T06:07:31.675Z,12.49
2017-01-23T06:08:12.166Z,12.59
2017-01-23T06:08:52.681Z,12.59
2017-01-23T06:09:33.165Z,12.59
2017-01-23T06:10:13.660Z,12.59
2017-01-23T06:10:54.166Z,12.59
2017-01-23T06:11:34.669Z,12.59
2017-01-23T06:12:15.161Z,12.69
2017-01-23T06:12:55.678Z,12.21
2017-01-23T06:13:36.161Z,12.21
2017-01-23T06:14:16.656Z,12.4
2017-01-23T06:14:57.158Z,12.4
2017-01-23T06:15:37.654Z,12.11
2017-01-23T06:16:18.150Z,12.69
2017-01-23T06:16:58.640Z,12.59
2017-01-23T06:17:39.129Z,12.49
2017-01-23T06:18:19.608Z,12.21
2017-01-23T06:19:00.100Z,12.59
2017-01-23T06:19:40.594Z,12.21
2017-01-23T06:20:21.086Z,12.21
2017-01-23T06:21:01.569Z,12.59
2017-01-23T06:21:42.051Z,12.69
2017-01-23T06:22:22.780Z,12.69
2017-01-23T06:23:03.261Z,12.59
2017-01-23T06:23:43.764Z,12.59
2017-01-23T06:24:24.250Z,12.21
2017-01-23T06:25:04.734Z,12.31
2017-01-23T06:25:45.228Z,12.78
2017-01-23T06:26:25.707Z,12.6
2017-01-23T06:27:06.205Z,12.5
2017-01-23T06:27:46.699Z,12.3
2017-01-23T06:28:27.208Z,12.21
2017-01-23T06:29:07.695Z,12.59
2017-01-23T06:29:48.190Z,12.59
2017-01-23T06:30:28.672Z,12.69
2017-01-23T06:31:09.164Z,12.69
2017-01-23T06:31:49.674Z,12.59
2017-01-23T06:32:30.271Z,12.59
2017-01-23T06:33:10.762Z,12.59
2017-01-23T06:33:51.251Z,12.59
2017-01-23T06:34:31.753Z,12.4
2017-01-23T06:35:12.243Z,12.59
2017-01-23T06:35:52.738Z,12.69
2017-01-23T06:36:33.276Z,12.59
2017-01-23T06:37:13.769Z,12.69
2017-01-23T06:37:54.258Z,12.59
2017-01-23T06:38:34.748Z,12.49
2017-01-23T06:39:15.237Z,12.59
2017-01-23T06:39:55.748Z,12.69
2017-01-23T06:40:36.238Z,12.59
2017-01-23T06:41:16.745Z,12.49
2017-01-23T06:41:57.234Z,12.49
2017-01-23T06:42:38.086Z,12.69
2017-01-23T06:43:18.572Z,12.69
2017-01-23T06:43:59.066Z,12.59
2017-01-23T06:44:39.544Z,12.59
2017-01-23T06:45:20.049Z,12.49
2017-01-23T06:46:00.539Z,12.49
2017-01-23T06:46:41.037Z,12.59
2017-01-23T06:47:21.539Z,12.88
2017-01-23T06:48:02.047Z,12.49
2017-01-23T06:48:42.558Z,12.69
2017-01-23T06:49:23.055Z,12.59
2017-01-23T06:50:03.541Z,12.69
2017-01-23T06:50:44.030Z,12.69
2017-01-23T06:51:24.530Z,12.7
2017-01-23T06:52:04.993Z,12.4
2017-01-23T06:52:45.492Z,12.49
2017-01-23T06:53:25.986Z,12.78
2017-01-23T06:54:06.475Z,12.5
2017-01-23T06:54:46.960Z,12.49
2017-01-23T06:55:27.464Z,12.59
2017-01-23T06:56:07.975Z,12.49
2017-01-23T06:56:48.437Z,12.49
2017-01-23T06:57:28.922Z,12.59
2017-01-23T06:58:09.426Z,12.88
2017-01-23T06:58:49.923Z,12.59
2017-01-23T06:59:30.403Z,12.88
2017-01-23T07:00:11.717Z,12.69
2017-01-23T07:00:52.245Z,12.78
2017-01-23T07:01:32.767Z,12.78
2017-01-23T07:02:13.245Z,12.69
2017-01-23T07:02:53.735Z,12.69
2017-01-23T07:03:34.231Z,12.78
2017-01-23T07:04:14.708Z,12.98
2017-01-23T07:04:55.197Z,12.69
2017-01-23T07:05:35.686Z,12.88
2017-01-23T07:06:16.179Z,12.88
2017-01-23T07:06:56.664Z,12.88
2017-01-23T07:07:37.148Z,12.88
2017-01-23T07:08:17.644Z,12.98
2017-01-23T07:08:58.126Z,13.17
2017-01-23T07:09:38.615Z,12.88
2017-01-23T07:10:19.100Z,13.26
2017-01-23T07:10:59.581Z,13.26
2017-01-23T07:11:40.074Z,12.98
2017-01-23T07:12:20.571Z,12.88
2017-01-23T07:13:01.033Z,12.98
2017-01-23T07:13:41.527Z,12.88
2017-01-23T07:14:22.027Z,12.98
2017-01-23T07:15:02.519Z,12.98
2017-01-23T07:15:43.004Z,12.7
2017-01-23T07:16:23.490Z,12.98
2017-01-23T07:17:03.981Z,12.98
2017-01-23T07:17:44.480Z,13.07
2017-01-23T07:18:24.976Z,12.7
2017-01-23T07:19:05.535Z,12.98
2017-01-23T07:19:46.034Z,12.88
2017-01-23T07:20:26.528Z,12.88
2017-01-23T07:21:07.016Z,12.88
2017-01-23T07:21:47.527Z,12.98
2017-01-23T07:22:28.019Z,12.88
2017-01-23T07:23:08.517Z,12.98
2017-01-23T07:23:49.016Z,12.88
2017-01-23T07:24:29.512Z,12.88
2017-01-23T07:25:10.006Z,12.79
2017-01-23T07:25:50.487Z,13.08
2017-01-23T07:26:30.982Z,12.88
2017-01-23T07:27:11.460Z,12.88
2017-01-23T07:27:51.956Z,13.37
2017-01-23T07:28:32.449Z,12.88
2017-01-23T07:29:12.939Z,12.98
2017-01-23T07:29:53.423Z,12.88
2017-01-23T07:30:33.909Z,13.17
2017-01-23T07:31:14.404Z,13.36
2017-01-23T07:31:54.905Z,13.27
2017-01-23T07:32:35.414Z,13.17
2017-01-23T07:33:16.272Z,12.88
2017-01-23T07:33:56.759Z,12.98
2017-01-23T07:34:37.221Z,13.37
2017-01-23T07:35:17.720Z,13.37
2017-01-23T07:35:58.210Z,13.75
2017-01-23T07:36:38.706Z,13.27
2017-01-23T07:37:19.199Z,13.65
2017-01-23T07:37:59.676Z,13.37
2017-01-23T07:38:40.167Z,13.46
2017-01-23T07:39:20.656Z,13.46
2017-01-23T07:40:01.153Z,13.56
2017-01-23T07:40:41.632Z,13.56
2017-01-23T07:41:22.134Z,13.65
2017-01-23T07:42:02.626Z,13.85
2017-01-23T07:42:43.105Z,13.65
2017-01-23T07:43:23.609Z,13.56
2017-01-23T07:44:04.100Z,13.65
2017-01-23T07:44:44.596Z,13.56
2017-01-23T07:45:25.093Z,13.56
2017-01-23T07:46:05.595Z,13.56
2017-01-23T07:46:46.091Z,13.65
2017-01-23T07:47:26.567Z,13.46
2017-01-23T07:48:07.055Z,13.46
2017-01-23T07:48:47.543Z,13.56
2017-01-23T07:49:28.044Z,13.46
2017-01-23T07:50:08.534Z,13.56
2017-01-23T07:50:49.017Z,13.75
2017-01-23T07:51:29.510Z,13.46
2017-01-23T07:52:10.005Z,13.46
2017-01-23T07:52:50.501Z,13.56
2017-01-23T07:53:30.995Z,13.85
2017-01-23T07:54:11.487Z,13.46
2017-01-23T07:54:51.977Z,13.75
2017-01-23T07:55:32.467Z,13.65
2017-01-23T07:56:12.959Z,13.65
2017-01-23T07:56:53.452Z,13.56
2017-01-23T07:57:33.925Z,13.56
2017-01-23T07:58:14.410Z,14.04
2017-01-23T07:58:55.164Z,13.56
2017-01-23T07:59:35.648Z,13.56
2017-01-23T08:00:16.146Z,13.56
2017-01-23T08:00:56.633Z,13.85
2017-01-23T08:01:37.160Z,13.56
2017-01-23T08:02:17.633Z,13.56
2017-01-23T08:02:58.148Z,13.95
2017-01-23T08:03:38.634Z,13.65
2017-01-23T08:04:19.610Z,13.47
2017-01-23T08:05:00.115Z,13.47
2017-01-23T08:05:40.612Z,13.47
2017-01-23T08:06:21.100Z,13.47
2017-01-23T08:07:01.588Z,13.56
2017-01-23T08:07:42.101Z,13.46
2017-01-23T08:08:22.587Z,13.56
2017-01-23T08:09:03.109Z,13.56
2017-01-23T08:09:43.591Z,13.47
2017-01-23T08:10:24.082Z,13.66
2017-01-23T08:11:04.584Z,13.56
2017-01-23T08:11:45.104Z,13.47
2017-01-23T08:12:25.585Z,13.56
2017-01-23T08:13:06.093Z,13.66
2017-01-23T08:13:46.582Z,13.47
2017-01-23T08:14:27.103Z,13.66
2017-01-23T08:15:07.588Z,13.37
2017-01-23T08:15:48.097Z,13.37
2017-01-23T08:16:28.585Z,13.66
2017-01-23T08:17:09.078Z,13.76
2017-01-23T08:17:49.582Z,13.76
2017-01-23T08:18:30.091Z,14.14
2017-01-23T08:19:10.581Z,13.95
2017-01-23T08:19:51.075Z,13.85
2017-01-23T08:20:31.567Z,13.47
2017-01-23T08:21:12.042Z,13.56
2017-01-23T08:21:53.490Z,13.37
2017-01-23T08:22:33.002Z,13.95
2017-01-23T08:23:13.506Z,13.47
2017-01-23T08:23:53.997Z,13.47
2017-01-23T08:24:34.481Z,13.95
2017-01-23T08:25:14.978Z,13.56
2017-01-23T08:25:55.491Z,13.47
2017-01-23T08:26:35.985Z,13.47
2017-01-23T08:27:16.472Z,13.47
2017-01-23T08:27:56.982Z,13.37
2017-01-23T08:28:37.471Z,13.66
2017-01-23T08:29:17.958Z,13.66
2017-01-23T08:29:58.443Z,14.14
2017-01-23T08:30:38.934Z,13.95
2017-01-23T08:31:19.430Z,13.95
2017-01-23T08:31:59.914Z,13.95
2017-01-23T08:32:40.413Z,14.04
2017-01-23T08:33:20.912Z,13.85
2017-01-23T08:34:01.410Z,13.95
2017-01-23T08:34:41.908Z,13.85
2017-01-23T08:35:22.412Z,13.47
2017-01-23T08:36:02.911Z,13.47
2017-01-23T08:36:43.407Z,13.56
2017-01-23T08:37:23.910Z,13.56
2017-01-23T08:38:04.424Z,13.66
2017-01-23T08:38:44.954Z,13.56
2017-01-23T08:39:25.447Z,13.47
2017-01-23T08:40:05.960Z,13.47
2017-01-23T08:40:46.427Z,13.47
2017-01-23T08:41:26.924Z,13.47
2017-01-23T08:42:07.415Z,13.56
2017-01-23T08:42:47.903Z,13.47
2017-01-23T08:43:28.400Z,13.47
2017-01-23T08:44:08.898Z,13.47
2017-01-23T08:44:49.398Z,13.66
2017-01-23T08:45:29.880Z,13.56
2017-01-23T08:46:10.371Z,13.67
2017-01-23T08:46:50.850Z,13.67
2017-01-23T08:47:31.348Z,13.48
2017-01-23T08:48:11.844Z,13.66
2017-01-23T08:48:52.324Z,13.66